Iaşi, România

12:54 PM EEST on iulie 25, 2016 (GMT +0300)
Iasi | | Change Station

Elev 338 ft 47.16 °N, 27.63 °E | Updated 24 minutes ago

Clear
Cer senin
84 °F
Feels Like 84 °F
N
7
Vânt variabil Vânt from NNV

astăzi
High -- | Low -- °F
--% Chance of Precip.
Ieri
High -- | Low -- °F
Precip. -- inch
Presiunea 30.01 inch
Vizibilitatea -9999.0 mile
Nori
Indicele de căldură 84 °F
Punctul de rouă 61 °F
Umiditatea 45%
Precipitaţii 0.00 inch
Adâncimea zăpezii Not available.
5:40 AM 8:51 PM
Lună în descreştere, 67% visible
METAR LRIA 250930Z 33006KT CAVOK 29/16 Q1016
Presiunea 30.01 inch
Vizibilitatea -9999.0 mile
Nori
Indicele de căldură 84 °F
Punctul de rouă 61 °F
Umiditatea 45%
Precipitaţii 0.00 inch
Adâncimea zăpezii Not available.
5:40 AM 8:51 PM
Lună în descreştere, 67% visible
METAR LRIA 250930Z 33006KT CAVOK 29/16 Q1016

10-Day Weather Forecast

×

Almanac

Astronomie

Jul. 25, 2016 Răsărit Apus
Timpul Actual
Crepusculul Civil
Crepusculul nautic
Răsărit Astronomic
Luna
Durata zilei lumină
Lungimea zilei
Tomorrow will be .
, % of the Moon is Illuminated

Extremele de azi

Country Highs Country Lows

Community

WunderPhotos

Upload Photos

1,927,289 photos uploaded!

WunderBlog® & News

Nearby

Calitatea aerului

  Calitatea aerului Index de calitate a aerului Poluat
Not available.

Adâncimea zapezii

Station Depth Elevation

Earthquake Activity

Oraş Distance Mag. Time & Date
Minimum magnitude displayed is 2.5.

Coastal Water Temperatures

Locul Temperatura

Stations

Nearby Weather Stations

Locaţia staţiei Temp Vânt rece Punctul de rouă Umiditatea Vânt Precip. Elev Actualizare Type